sensor_id;sensor_type;location;lat;lon;timestamp;P1;durP1;ratioP1;P2;durP2;ratioP2
35646;SDS011;28680;45.642;13.756;2023-08-07T00:01:13;1.20;;;0.75;;
35646;SDS011;28680;45.642;13.756;2023-08-07T00:03:39;1.95;;;0.60;;
35646;SDS011;28680;45.642;13.756;2023-08-07T00:06:05;1.00;;;0.63;;
35646;SDS011;28680;45.642;13.756;2023-08-07T00:08:31;1.77;;;0.70;;
35646;SDS011;28680;45.642;13.756;2023-08-07T00:11:05;4.28;;;0.73;;
35646;SDS011;28680;45.642;13.756;2023-08-07T00:13:33;0.80;;;0.57;;
35646;SDS011;28680;45.642;13.756;2023-08-07T00:15:59;2.00;;;0.65;;
35646;SDS011;28680;45.642;13.756;2023-08-07T00:18:25;2.28;;;0.50;;
35646;SDS011;28680;45.642;13.756;2023-08-07T00:20:51;1.38;;;0.30;;
35646;SDS011;28680;45.642;13.756;2023-08-07T00:23:17;5.90;;;0.82;;
35646;SDS011;28680;45.642;13.756;2023-08-07T00:25:43;2.03;;;0.50;;
35646;SDS011;28680;45.642;13.756;2023-08-07T00:28:09;0.60;;;0.40;;
35646;SDS011;28680;45.642;13.756;2023-08-07T00:30:35;0.90;;;0.30;;
35646;SDS011;28680;45.642;13.756;2023-08-07T00:33:01;0.65;;;0.50;;
35646;SDS011;28680;45.642;13.756;2023-08-07T00:35:28;0.98;;;0.45;;
35646;SDS011;28680;45.642;13.756;2023-08-07T00:37:54;1.80;;;0.40;;
35646;SDS011;28680;45.642;13.756;2023-08-07T00:40:20;1.67;;;0.60;;
35646;SDS011;28680;45.642;13.756;2023-08-07T00:42:46;1.25;;;0.45;;
35646;SDS011;28680;45.642;13.756;2023-08-07T00:45:13;0.40;;;0.40;;
35646;SDS011;28680;45.642;13.756;2023-08-07T00:47:39;1.08;;;0.40;;
35646;SDS011;28680;45.642;13.756;2023-08-07T00:50:06;2.00;;;0.40;;
35646;SDS011;28680;45.642;13.756;2023-08-07T00:52:33;1.00;;;0.40;;
35646;SDS011;28680;45.642;13.756;2023-08-07T00:54:59;1.05;;;0.50;;
35646;SDS011;28680;45.642;13.756;2023-08-07T00:57:25;1.35;;;0.40;;
35646;SDS011;28680;45.642;13.756;2023-08-07T00:59:52;0.68;;;0.40;;
35646;SDS011;28680;45.642;13.756;2023-08-07T01:02:18;0.95;;;0.32;;
35646;SDS011;28680;45.642;13.756;2023-08-07T01:04:45;0.40;;;0.30;;
35646;SDS011;28680;45.642;13.756;2023-08-07T01:07:12;1.00;;;0.55;;
35646;SDS011;28680;45.642;13.756;2023-08-07T01:09:38;1.20;;;0.50;;
35646;SDS011;28680;45.642;13.756;2023-08-07T01:12:15;0.82;;;0.50;;
35646;SDS011;28680;45.642;13.756;2023-08-07T01:14:55;0.50;;;0.30;;
35646;SDS011;28680;45.642;13.756;2023-08-07T01:17:34;0.50;;;0.50;;
35646;SDS011;28680;45.642;13.756;2023-08-07T01:20:01;0.40;;;0.30;;
35646;SDS011;28680;45.642;13.756;2023-08-07T01:22:30;0.60;;;0.40;;
35646;SDS011;28680;45.642;13.756;2023-08-07T01:24:56;0.35;;;0.32;;
35646;SDS011;28680;45.642;13.756;2023-08-07T01:30:17;0.43;;;0.40;;
35646;SDS011;28680;45.642;13.756;2023-08-07T01:33:57;0.38;;;0.38;;
35646;SDS011;28680;45.642;13.756;2023-08-07T01:36:13;0.28;;;0.28;;
35646;SDS011;28680;45.642;13.756;2023-08-07T01:38:41;0.45;;;0.45;;
35646;SDS011;28680;45.642;13.756;2023-08-07T01:41:08;0.80;;;0.55;;
35646;SDS011;28680;45.642;13.756;2023-08-07T01:43:34;0.57;;;0.30;;
35646;SDS011;28680;45.642;13.756;2023-08-07T01:46:01;1.05;;;0.40;;
35646;SDS011;28680;45.642;13.756;2023-08-07T01:48:28;1.35;;;0.43;;
35646;SDS011;28680;45.642;13.756;2023-08-07T01:50:54;0.30;;;0.30;;
35646;SDS011;28680;45.642;13.756;2023-08-07T01:53:20;1.25;;;0.30;;
35646;SDS011;28680;45.642;13.756;2023-08-07T01:55:46;0.45;;;0.28;;
35646;SDS011;28680;45.642;13.756;2023-08-07T01:58:12;0.90;;;0.30;;
35646;SDS011;28680;45.642;13.756;2023-08-07T02:00:38;0.82;;;0.38;;
35646;SDS011;28680;45.642;13.756;2023-08-07T02:03:07;0.32;;;0.32;;
35646;SDS011;28680;45.642;13.756;2023-08-07T02:05:33;0.30;;;0.30;;
35646;SDS011;28680;45.642;13.756;2023-08-07T02:08:00;0.95;;;0.30;;
35646;SDS011;28680;45.642;13.756;2023-08-07T02:10:26;0.30;;;0.30;;
35646;SDS011;28680;45.642;13.756;2023-08-07T02:12:53;1.08;;;0.40;;
35646;SDS011;28680;45.642;13.756;2023-08-07T02:15:19;3.65;;;0.45;;
35646;SDS011;28680;45.642;13.756;2023-08-07T02:17:49;1.10;;;0.50;;
35646;SDS011;28680;45.642;13.756;2023-08-07T02:20:16;0.77;;;0.40;;
35646;SDS011;28680;45.642;13.756;2023-08-07T02:22:42;0.60;;;0.30;;
35646;SDS011;28680;45.642;13.756;2023-08-07T02:25:08;3.53;;;0.50;;
35646;SDS011;28680;45.642;13.756;2023-08-07T02:27:36;1.42;;;0.40;;
35646;SDS011;28680;45.642;13.756;2023-08-07T02:30:04;0.32;;;0.30;;
35646;SDS011;28680;45.642;13.756;2023-08-07T02:32:31;1.77;;;0.30;;
35646;SDS011;28680;45.642;13.756;2023-08-07T02:34:57;7.32;;;0.55;;
35646;SDS011;28680;45.642;13.756;2023-08-07T02:37:24;1.58;;;0.47;;
35646;SDS011;28680;45.642;13.756;2023-08-07T02:39:50;1.05;;;0.40;;
35646;SDS011;28680;45.642;13.756;2023-08-07T02:42:16;1.92;;;0.40;;
35646;SDS011;28680;45.642;13.756;2023-08-07T02:44:42;2.60;;;0.30;;
35646;SDS011;28680;45.642;13.756;2023-08-07T02:47:08;0.43;;;0.40;;
35646;SDS011;28680;45.642;13.756;2023-08-07T02:49:34;0.70;;;0.38;;
35646;SDS011;28680;45.642;13.756;2023-08-07T02:52:00;0.68;;;0.40;;
35646;SDS011;28680;45.642;13.756;2023-08-07T02:54:26;1.08;;;0.22;;
35646;SDS011;28680;45.642;13.756;2023-08-07T02:56:52;1.33;;;0.40;;
35646;SDS011;28680;45.642;13.756;2023-08-07T02:59:18;0.43;;;0.20;;
35646;SDS011;28680;45.642;13.756;2023-08-07T03:01:44;1.50;;;0.40;;
35646;SDS011;28680;45.642;13.756;2023-08-07T03:04:10;1.77;;;0.65;;
35646;SDS011;28680;45.642;13.756;2023-08-07T03:06:37;2.95;;;0.30;;
35646;SDS011;28680;45.642;13.756;2023-08-07T03:09:03;0.82;;;0.40;;
35646;SDS011;28680;45.642;13.756;2023-08-07T03:11:29;3.15;;;0.50;;
35646;SDS011;28680;45.642;13.756;2023-08-07T03:13:55;1.15;;;0.32;;
35646;SDS011;28680;45.642;13.756;2023-08-07T03:16:21;2.28;;;0.30;;
35646;SDS011;28680;45.642;13.756;2023-08-07T03:18:47;1.55;;;0.40;;
35646;SDS011;28680;45.642;13.756;2023-08-07T03:21:13;0.45;;;0.43;;
35646;SDS011;28680;45.642;13.756;2023-08-07T03:23:40;0.70;;;0.50;;
35646;SDS011;28680;45.642;13.756;2023-08-07T03:26:08;1.45;;;0.50;;
35646;SDS011;28680;45.642;13.756;2023-08-07T03:28:39;0.30;;;0.20;;
35646;SDS011;28680;45.642;13.756;2023-08-07T03:31:06;1.80;;;0.52;;
35646;SDS011;28680;45.642;13.756;2023-08-07T03:33:34;2.08;;;0.38;;
35646;SDS011;28680;45.642;13.756;2023-08-07T03:36:00;0.50;;;0.40;;
35646;SDS011;28680;45.642;13.756;2023-08-07T03:38:27;2.78;;;0.50;;
35646;SDS011;28680;45.642;13.756;2023-08-07T03:40:55;1.50;;;0.50;;
35646;SDS011;28680;45.642;13.756;2023-08-07T03:43:21;0.70;;;0.45;;
35646;SDS011;28680;45.642;13.756;2023-08-07T03:45:47;0.80;;;0.30;;
35646;SDS011;28680;45.642;13.756;2023-08-07T03:48:24;2.05;;;0.40;;
35646;SDS011;28680;45.642;13.756;2023-08-07T03:50:50;1.85;;;0.43;;
35646;SDS011;28680;45.642;13.756;2023-08-07T03:53:17;0.80;;;0.68;;
35646;SDS011;28680;45.642;13.756;2023-08-07T03:55:52;1.50;;;0.65;;
35646;SDS011;28680;45.642;13.756;2023-08-07T03:58:21;0.82;;;0.60;;
35646;SDS011;28680;45.642;13.756;2023-08-07T04:00:47;1.05;;;0.50;;
35646;SDS011;28680;45.642;13.756;2023-08-07T04:03:15;1.83;;;0.50;;
35646;SDS011;28680;45.642;13.756;2023-08-07T04:05:41;0.50;;;0.50;;
35646;SDS011;28680;45.642;13.756;2023-08-07T04:08:07;2.47;;;0.50;;
35646;SDS011;28680;45.642;13.756;2023-08-07T04:10:33;0.63;;;0.50;;
35646;SDS011;28680;45.642;13.756;2023-08-07T04:12:59;0.95;;;0.50;;
35646;SDS011;28680;45.642;13.756;2023-08-07T04:15:25;7.43;;;0.52;;
35646;SDS011;28680;45.642;13.756;2023-08-07T04:17:53;1.50;;;0.60;;
35646;SDS011;28680;45.642;13.756;2023-08-07T04:20:19;0.95;;;0.38;;
35646;SDS011;28680;45.642;13.756;2023-08-07T04:22:45;2.80;;;0.63;;
35646;SDS011;28680;45.642;13.756;2023-08-07T04:25:12;1.15;;;0.65;;
35646;SDS011;28680;45.642;13.756;2023-08-07T04:27:38;3.20;;;0.57;;
35646;SDS011;28680;45.642;13.756;2023-08-07T04:30:05;1.08;;;0.50;;
35646;SDS011;28680;45.642;13.756;2023-08-07T04:32:31;5.43;;;1.30;;
35646;SDS011;28680;45.642;13.756;2023-08-07T04:34:57;3.45;;;0.50;;
35646;SDS011;28680;45.642;13.756;2023-08-07T04:37:24;2.78;;;0.50;;
35646;SDS011;28680;45.642;13.756;2023-08-07T04:39:50;0.68;;;0.50;;
35646;SDS011;28680;45.642;13.756;2023-08-07T04:42:16;1.10;;;0.65;;
35646;SDS011;28680;45.642;13.756;2023-08-07T04:44:41;0.55;;;0.40;;
35646;SDS011;28680;45.642;13.756;2023-08-07T04:47:07;2.25;;;0.60;;
35646;SDS011;28680;45.642;13.756;2023-08-07T04:49:33;1.90;;;0.50;;
35646;SDS011;28680;45.642;13.756;2023-08-07T04:51:59;1.75;;;0.68;;
35646;SDS011;28680;45.642;13.756;2023-08-07T04:54:26;1.70;;;0.80;;
35646;SDS011;28680;45.642;13.756;2023-08-07T04:56:52;1.17;;;0.50;;
35646;SDS011;28680;45.642;13.756;2023-08-07T04:59:18;1.85;;;0.40;;
35646;SDS011;28680;45.642;13.756;2023-08-07T05:01:44;3.08;;;0.75;;
35646;SDS011;28680;45.642;13.756;2023-08-07T05:04:10;1.33;;;0.55;;
35646;SDS011;28680;45.642;13.756;2023-08-07T05:06:36;2.15;;;0.80;;
35646;SDS011;28680;45.642;13.756;2023-08-07T05:09:02;5.38;;;3.10;;
35646;SDS011;28680;45.642;13.756;2023-08-07T05:11:28;1.30;;;0.68;;
35646;SDS011;28680;45.642;13.756;2023-08-07T05:13:55;1.10;;;0.60;;
35646;SDS011;28680;45.642;13.756;2023-08-07T05:16:21;2.30;;;0.57;;
35646;SDS011;28680;45.642;13.756;2023-08-07T05:18:48;1.90;;;0.70;;
35646;SDS011;28680;45.642;13.756;2023-08-07T05:21:15;1.75;;;0.52;;
35646;SDS011;28680;45.642;13.756;2023-08-07T05:23:41;1.58;;;0.65;;
35646;SDS011;28680;45.642;13.756;2023-08-07T05:26:07;1.63;;;0.60;;
35646;SDS011;28680;45.642;13.756;2023-08-07T05:28:33;1.55;;;0.70;;
35646;SDS011;28680;45.642;13.756;2023-08-07T05:30:59;1.20;;;0.70;;
35646;SDS011;28680;45.642;13.756;2023-08-07T05:33:25;1.55;;;0.60;;
35646;SDS011;28680;45.642;13.756;2023-08-07T05:35:51;0.77;;;0.57;;
35646;SDS011;28680;45.642;13.756;2023-08-07T05:38:20;1.20;;;0.68;;
35646;SDS011;28680;45.642;13.756;2023-08-07T05:40:46;1.05;;;0.50;;
35646;SDS011;28680;45.642;13.756;2023-08-07T05:43:12;2.10;;;0.70;;
35646;SDS011;28680;45.642;13.756;2023-08-07T05:45:44;1.77;;;0.50;;
35646;SDS011;28680;45.642;13.756;2023-08-07T05:48:11;2.15;;;0.88;;
35646;SDS011;28680;45.642;13.756;2023-08-07T05:50:37;3.53;;;0.60;;
35646;SDS011;28680;45.642;13.756;2023-08-07T05:53:03;3.92;;;0.50;;
35646;SDS011;28680;45.642;13.756;2023-08-07T05:55:29;1.50;;;0.82;;
35646;SDS011;28680;45.642;13.756;2023-08-07T05:57:55;2.90;;;0.90;;
35646;SDS011;28680;45.642;13.756;2023-08-07T06:00:21;1.95;;;1.13;;
35646;SDS011;28680;45.642;13.756;2023-08-07T06:02:47;5.85;;;0.70;;
35646;SDS011;28680;45.642;13.756;2023-08-07T06:05:16;2.83;;;0.50;;
35646;SDS011;28680;45.642;13.756;2023-08-07T06:07:42;1.98;;;0.47;;
35646;SDS011;28680;45.642;13.756;2023-08-07T06:10:08;0.95;;;0.57;;
35646;SDS011;28680;45.642;13.756;2023-08-07T06:12:34;4.10;;;1.02;;
35646;SDS011;28680;45.642;13.756;2023-08-07T06:15:01;3.08;;;0.85;;
35646;SDS011;28680;45.642;13.756;2023-08-07T06:17:27;4.40;;;0.77;;
35646;SDS011;28680;45.642;13.756;2023-08-07T06:19:54;1.90;;;0.80;;
35646;SDS011;28680;45.642;13.756;2023-08-07T06:25:17;1.17;;;0.57;;
35646;SDS011;28680;45.642;13.756;2023-08-07T06:27:44;2.63;;;0.98;;
35646;SDS011;28680;45.642;13.756;2023-08-07T06:30:11;3.35;;;0.60;;
35646;SDS011;28680;45.642;13.756;2023-08-07T06:32:39;2.15;;;1.05;;
35646;SDS011;28680;45.642;13.756;2023-08-07T06:35:05;2.78;;;0.90;;
35646;SDS011;28680;45.642;13.756;2023-08-07T06:37:31;3.60;;;0.70;;
35646;SDS011;28680;45.642;13.756;2023-08-07T06:39:57;1.95;;;0.68;;
35646;SDS011;28680;45.642;13.756;2023-08-07T06:42:23;1.83;;;0.82;;
35646;SDS011;28680;45.642;13.756;2023-08-07T06:44:49;3.22;;;1.05;;
35646;SDS011;28680;45.642;13.756;2023-08-07T06:47:15;3.03;;;1.00;;
35646;SDS011;28680;45.642;13.756;2023-08-07T06:49:41;2.80;;;1.05;;
35646;SDS011;28680;45.642;13.756;2023-08-07T06:52:07;3.08;;;0.80;;
35646;SDS011;28680;45.642;13.756;2023-08-07T06:54:33;5.47;;;0.70;;
35646;SDS011;28680;45.642;13.756;2023-08-07T06:57:00;2.97;;;0.82;;
35646;SDS011;28680;45.642;13.756;2023-08-07T06:59:26;2.00;;;0.80;;
35646;SDS011;28680;45.642;13.756;2023-08-07T07:01:51;0.93;;;0.60;;
35646;SDS011;28680;45.642;13.756;2023-08-07T07:04:17;1.08;;;0.65;;
35646;SDS011;28680;45.642;13.756;2023-08-07T07:06:43;2.22;;;0.40;;
35646;SDS011;28680;45.642;13.756;2023-08-07T07:09:10;1.30;;;0.80;;
35646;SDS011;28680;45.642;13.756;2023-08-07T07:11:36;7.25;;;1.30;;
35646;SDS011;28680;45.642;13.756;2023-08-07T07:14:03;1.50;;;1.10;;
35646;SDS011;28680;45.642;13.756;2023-08-07T07:16:29;1.67;;;0.80;;
35646;SDS011;28680;45.642;13.756;2023-08-07T07:18:54;2.03;;;1.20;;
35646;SDS011;28680;45.642;13.756;2023-08-07T07:21:23;2.70;;;1.00;;
35646;SDS011;28680;45.642;13.756;2023-08-07T07:23:49;2.20;;;1.20;;
35646;SDS011;28680;45.642;13.756;2023-08-07T07:26:15;2.38;;;0.70;;
35646;SDS011;28680;45.642;13.756;2023-08-07T07:28:41;1.10;;;0.90;;
35646;SDS011;28680;45.642;13.756;2023-08-07T07:31:07;2.53;;;1.35;;
35646;SDS011;28680;45.642;13.756;2023-08-07T07:33:36;3.47;;;2.42;;
35646;SDS011;28680;45.642;13.756;2023-08-07T07:36:04;3.17;;;2.30;;
35646;SDS011;28680;45.642;13.756;2023-08-07T07:38:31;4.30;;;1.98;;
35646;SDS011;28680;45.642;13.756;2023-08-07T07:40:57;8.15;;;3.47;;
35646;SDS011;28680;45.642;13.756;2023-08-07T07:43:23;6.35;;;2.67;;
35646;SDS011;28680;45.642;13.756;2023-08-07T07:45:51;7.75;;;4.72;;
35646;SDS011;28680;45.642;13.756;2023-08-07T07:48:17;3.45;;;1.83;;
35646;SDS011;28680;45.642;13.756;2023-08-07T07:50:42;3.58;;;1.27;;
35646;SDS011;28680;45.642;13.756;2023-08-07T07:53:09;1.80;;;0.85;;
35646;SDS011;28680;45.642;13.756;2023-08-07T07:55:34;1.20;;;0.60;;
35646;SDS011;28680;45.642;13.756;2023-08-07T07:58:03;0.63;;;0.60;;
35646;SDS011;28680;45.642;13.756;2023-08-07T08:00:29;1.70;;;0.47;;
35646;SDS011;28680;45.642;13.756;2023-08-07T08:02:55;1.17;;;0.75;;
35646;SDS011;28680;45.642;13.756;2023-08-07T08:05:21;0.90;;;0.60;;
35646;SDS011;28680;45.642;13.756;2023-08-07T08:07:47;1.80;;;0.70;;
35646;SDS011;28680;45.642;13.756;2023-08-07T08:10:14;1.80;;;0.75;;
35646;SDS011;28680;45.642;13.756;2023-08-07T08:12:40;1.25;;;0.60;;
35646;SDS011;28680;45.642;13.756;2023-08-07T08:15:06;0.77;;;0.65;;
35646;SDS011;28680;45.642;13.756;2023-08-07T08:17:33;0.50;;;0.40;;
35646;SDS011;28680;45.642;13.756;2023-08-07T08:19:59;1.38;;;0.70;;
35646;SDS011;28680;45.642;13.756;2023-08-07T08:22:25;2.10;;;0.60;;
35646;SDS011;28680;45.642;13.756;2023-08-07T08:24:51;2.40;;;0.50;;
35646;SDS011;28680;45.642;13.756;2023-08-07T08:27:17;0.68;;;0.50;;
35646;SDS011;28680;45.642;13.756;2023-08-07T08:29:44;0.50;;;0.40;;
35646;SDS011;28680;45.642;13.756;2023-08-07T08:32:10;0.98;;;0.45;;
35646;SDS011;28680;45.642;13.756;2023-08-07T08:34:36;0.93;;;0.52;;
35646;SDS011;28680;45.642;13.756;2023-08-07T08:37:02;0.57;;;0.50;;
35646;SDS011;28680;45.642;13.756;2023-08-07T08:39:31;3.08;;;0.90;;
35646;SDS011;28680;45.642;13.756;2023-08-07T08:41:57;0.95;;;0.50;;
35646;SDS011;28680;45.642;13.756;2023-08-07T08:44:24;0.95;;;0.40;;
35646;SDS011;28680;45.642;13.756;2023-08-07T08:46:51;0.85;;;0.60;;
35646;SDS011;28680;45.642;13.756;2023-08-07T08:49:21;0.40;;;0.40;;
35646;SDS011;28680;45.642;13.756;2023-08-07T08:51:56;1.05;;;0.50;;
35646;SDS011;28680;45.642;13.756;2023-08-07T08:54:22;1.65;;;0.57;;
35646;SDS011;28680;45.642;13.756;2023-08-07T08:56:48;0.50;;;0.50;;
35646;SDS011;28680;45.642;13.756;2023-08-07T08:59:15;0.65;;;0.45;;
35646;SDS011;28680;45.642;13.756;2023-08-07T09:01:43;1.13;;;0.50;;
35646;SDS011;28680;45.642;13.756;2023-08-07T09:04:12;0.60;;;0.50;;
35646;SDS011;28680;45.642;13.756;2023-08-07T09:06:38;1.75;;;0.60;;
35646;SDS011;28680;45.642;13.756;2023-08-07T09:09:05;0.82;;;0.60;;
35646;SDS011;28680;45.642;13.756;2023-08-07T09:11:33;1.45;;;0.63;;
35646;SDS011;28680;45.642;13.756;2023-08-07T09:14:00;0.90;;;0.80;;
35646;SDS011;28680;45.642;13.756;2023-08-07T09:16:28;1.30;;;0.73;;
35646;SDS011;28680;45.642;13.756;2023-08-07T09:18:55;1.00;;;0.80;;
35646;SDS011;28680;45.642;13.756;2023-08-07T09:21:21;1.27;;;0.60;;
35646;SDS011;28680;45.642;13.756;2023-08-07T09:23:48;0.82;;;0.70;;
35646;SDS011;28680;45.642;13.756;2023-08-07T09:26:13;1.00;;;0.60;;
35646;SDS011;28680;45.642;13.756;2023-08-07T09:28:54;1.80;;;0.70;;
35646;SDS011;28680;45.642;13.756;2023-08-07T09:31:21;1.58;;;0.70;;
35646;SDS011;28680;45.642;13.756;2023-08-07T09:33:51;1.42;;;0.82;;
35646;SDS011;28680;45.642;13.756;2023-08-07T09:36:17;1.58;;;0.70;;
35646;SDS011;28680;45.642;13.756;2023-08-07T09:38:44;0.60;;;0.60;;
35646;SDS011;28680;45.642;13.756;2023-08-07T09:41:18;1.70;;;0.80;;
35646;SDS011;28680;45.642;13.756;2023-08-07T09:43:45;1.00;;;0.70;;
35646;SDS011;28680;45.642;13.756;2023-08-07T09:46:11;1.65;;;0.70;;
35646;SDS011;28680;45.642;13.756;2023-08-07T09:48:40;3.15;;;0.70;;
35646;SDS011;28680;45.642;13.756;2023-08-07T09:51:08;1.13;;;0.82;;
35646;SDS011;28680;45.642;13.756;2023-08-07T09:53:35;2.03;;;0.82;;
35646;SDS011;28680;45.642;13.756;2023-08-07T09:56:01;1.25;;;0.50;;
35646;SDS011;28680;45.642;13.756;2023-08-07T09:58:28;3.35;;;0.85;;
35646;SDS011;28680;45.642;13.756;2023-08-07T10:00:55;5.03;;;1.00;;
35646;SDS011;28680;45.642;13.756;2023-08-07T10:03:25;1.50;;;0.47;;
35646;SDS011;28680;45.642;13.756;2023-08-07T10:05:51;1.05;;;0.80;;
35646;SDS011;28680;45.642;13.756;2023-08-07T10:08:17;1.02;;;0.50;;
35646;SDS011;28680;45.642;13.756;2023-08-07T10:10:44;1.88;;;0.70;;
35646;SDS011;28680;45.642;13.756;2023-08-07T10:13:14;1.55;;;0.73;;
35646;SDS011;28680;45.642;13.756;2023-08-07T10:15:40;3.00;;;0.60;;
35646;SDS011;28680;45.642;13.756;2023-08-07T10:18:07;1.83;;;0.75;;
35646;SDS011;28680;45.642;13.756;2023-08-07T10:20:37;2.03;;;0.80;;
35646;SDS011;28680;45.642;13.756;2023-08-07T10:23:07;0.77;;;0.60;;
35646;SDS011;28680;45.642;13.756;2023-08-07T10:25:39;0.55;;;0.50;;
35646;SDS011;28680;45.642;13.756;2023-08-07T10:28:09;0.50;;;0.40;;
35646;SDS011;28680;45.642;13.756;2023-08-07T10:30:41;1.30;;;0.50;;
35646;SDS011;28680;45.642;13.756;2023-08-07T10:33:08;3.13;;;0.50;;
35646;SDS011;28680;45.642;13.756;2023-08-07T10:35:37;0.95;;;0.45;;
35646;SDS011;28680;45.642;13.756;2023-08-07T10:38:09;0.90;;;0.43;;
35646;SDS011;28680;45.642;13.756;2023-08-07T10:41:18;1.00;;;0.50;;
35646;SDS011;28680;45.642;13.756;2023-08-07T10:43:28;0.70;;;0.40;;
35646;SDS011;28680;45.642;13.756;2023-08-07T10:46:11;1.20;;;0.50;;
35646;SDS011;28680;45.642;13.756;2023-08-07T10:48:53;0.40;;;0.40;;
35646;SDS011;28680;45.642;13.756;2023-08-07T10:51:23;0.40;;;0.40;;
35646;SDS011;28680;45.642;13.756;2023-08-07T10:53:57;2.60;;;0.40;;
35646;SDS011;28680;45.642;13.756;2023-08-07T10:56:29;0.85;;;0.47;;
35646;SDS011;28680;45.642;13.756;2023-08-07T10:59:07;1.33;;;0.47;;
35646;SDS011;28680;45.642;13.756;2023-08-07T11:04:10;0.70;;;0.40;;
35646;SDS011;28680;45.642;13.756;2023-08-07T11:06:39;0.93;;;0.70;;
35646;SDS011;28680;45.642;13.756;2023-08-07T11:09:07;0.90;;;0.50;;
35646;SDS011;28680;45.642;13.756;2023-08-07T11:11:38;1.05;;;0.38;;
35646;SDS011;28680;45.642;13.756;2023-08-07T11:16:36;0.30;;;0.30;;
35646;SDS011;28680;45.642;13.756;2023-08-07T11:19:03;0.60;;;0.50;;
35646;SDS011;28680;45.642;13.756;2023-08-07T11:21:32;0.60;;;0.43;;
35646;SDS011;28680;45.642;13.756;2023-08-07T11:23:59;0.38;;;0.30;;
35646;SDS011;28680;45.642;13.756;2023-08-07T11:26:26;0.40;;;0.40;;
35646;SDS011;28680;45.642;13.756;2023-08-07T11:28:53;1.30;;;0.50;;
35646;SDS011;28680;45.642;13.756;2023-08-07T11:31:21;1.83;;;0.43;;
35646;SDS011;28680;45.642;13.756;2023-08-07T11:33:52;0.75;;;0.40;;
35646;SDS011;28680;45.642;13.756;2023-08-07T11:36:23;1.90;;;0.50;;
35646;SDS011;28680;45.642;13.756;2023-08-07T11:38:49;1.85;;;0.60;;
35646;SDS011;28680;45.642;13.756;2023-08-07T11:41:16;1.65;;;0.50;;
35646;SDS011;28680;45.642;13.756;2023-08-07T11:43:43;0.70;;;0.40;;
35646;SDS011;28680;45.642;13.756;2023-08-07T11:46:10;0.70;;;0.40;;
35646;SDS011;28680;45.642;13.756;2023-08-07T11:48:39;0.40;;;0.30;;
35646;SDS011;28680;45.642;13.756;2023-08-07T11:51:07;0.82;;;0.52;;
35646;SDS011;28680;45.642;13.756;2023-08-07T11:53:34;1.73;;;0.30;;
35646;SDS011;28680;45.642;13.756;2023-08-07T11:56:07;0.75;;;0.35;;
35646;SDS011;28680;45.642;13.756;2023-08-07T11:58:38;0.60;;;0.30;;
35646;SDS011;28680;45.642;13.756;2023-08-07T12:01:10;3.95;;;0.52;;
35646;SDS011;28680;45.642;13.756;2023-08-07T12:03:49;1.13;;;0.30;;
35646;SDS011;28680;45.642;13.756;2023-08-07T12:06:19;0.40;;;0.20;;
35646;SDS011;28680;45.642;13.756;2023-08-07T12:08:47;0.30;;;0.30;;
35646;SDS011;28680;45.642;13.756;2023-08-07T12:11:18;0.57;;;0.30;;
35646;SDS011;28680;45.642;13.756;2023-08-07T12:13:46;1.00;;;0.50;;
35646;SDS011;28680;45.642;13.756;2023-08-07T12:16:13;0.65;;;0.40;;
35646;SDS011;28680;45.642;13.756;2023-08-07T12:18:44;0.35;;;0.30;;
35646;SDS011;28680;45.642;13.756;2023-08-07T12:21:15;0.60;;;0.30;;
35646;SDS011;28680;45.642;13.756;2023-08-07T12:23:45;1.40;;;0.30;;
35646;SDS011;28680;45.642;13.756;2023-08-07T12:26:13;1.58;;;0.40;;
35646;SDS011;28680;45.642;13.756;2023-08-07T12:28:39;1.15;;;0.30;;
35646;SDS011;28680;45.642;13.756;2023-08-07T12:31:05;1.00;;;0.57;;
35646;SDS011;28680;45.642;13.756;2023-08-07T12:33:34;1.60;;;0.30;;
35646;SDS011;28680;45.642;13.756;2023-08-07T12:36:00;2.05;;;0.43;;
35646;SDS011;28680;45.642;13.756;2023-08-07T12:38:27;0.98;;;0.35;;
35646;SDS011;28680;45.642;13.756;2023-08-07T12:40:54;0.38;;;0.30;;
35646;SDS011;28680;45.642;13.756;2023-08-07T12:43:20;2.05;;;0.60;;
35646;SDS011;28680;45.642;13.756;2023-08-07T12:45:46;0.35;;;0.30;;
35646;SDS011;28680;45.642;13.756;2023-08-07T12:48:13;2.70;;;0.40;;
35646;SDS011;28680;45.642;13.756;2023-08-07T12:50:39;0.50;;;0.35;;
35646;SDS011;28680;45.642;13.756;2023-08-07T12:53:05;0.40;;;0.30;;
35646;SDS011;28680;45.642;13.756;2023-08-07T12:55:33;2.70;;;2.00;;
35646;SDS011;28680;45.642;13.756;2023-08-07T12:57:59;3.25;;;2.40;;
35646;SDS011;28680;45.642;13.756;2023-08-07T13:00:25;0.80;;;0.40;;
35646;SDS011;28680;45.642;13.756;2023-08-07T13:02:52;0.38;;;0.30;;
35646;SDS011;28680;45.642;13.756;2023-08-07T13:05:20;0.60;;;0.38;;
35646;SDS011;28680;45.642;13.756;2023-08-07T13:07:47;0.52;;;0.30;;
35646;SDS011;28680;45.642;13.756;2023-08-07T13:10:14;0.40;;;0.38;;
35646;SDS011;28680;45.642;13.756;2023-08-07T13:12:42;1.27;;;0.35;;
35646;SDS011;28680;45.642;13.756;2023-08-07T13:15:12;0.50;;;0.30;;
35646;SDS011;28680;45.642;13.756;2023-08-07T13:17:40;0.50;;;0.40;;
35646;SDS011;28680;45.642;13.756;2023-08-07T13:20:06;0.30;;;0.30;;
35646;SDS011;28680;45.642;13.756;2023-08-07T13:22:35;0.38;;;0.28;;
35646;SDS011;28680;45.642;13.756;2023-08-07T13:27:36;1.50;;;0.30;;
35646;SDS011;28680;45.642;13.756;2023-08-07T13:30:02;0.60;;;0.30;;
35646;SDS011;28680;45.642;13.756;2023-08-07T13:32:29;1.67;;;0.20;;
35646;SDS011;28680;45.642;13.756;2023-08-07T13:34:57;0.68;;;0.30;;
35646;SDS011;28680;45.642;13.756;2023-08-07T13:37:23;0.35;;;0.30;;
35646;SDS011;28680;45.642;13.756;2023-08-07T13:39:49;0.35;;;0.30;;
35646;SDS011;28680;45.642;13.756;2023-08-07T13:42:17;0.30;;;0.30;;
35646;SDS011;28680;45.642;13.756;2023-08-07T13:44:44;1.08;;;0.50;;
35646;SDS011;28680;45.642;13.756;2023-08-07T13:47:10;0.52;;;0.30;;
35646;SDS011;28680;45.642;13.756;2023-08-07T13:49:37;0.52;;;0.30;;
35646;SDS011;28680;45.642;13.756;2023-08-07T13:52:04;0.68;;;0.40;;
35646;SDS011;28680;45.642;13.756;2023-08-07T13:54:31;1.65;;;0.50;;
35646;SDS011;28680;45.642;13.756;2023-08-07T13:56:57;0.32;;;0.20;;
35646;SDS011;28680;45.642;13.756;2023-08-07T13:59:22;0.20;;;0.20;;
35646;SDS011;28680;45.642;13.756;2023-08-07T14:01:48;1.45;;;0.40;;
35646;SDS011;28680;45.642;13.756;2023-08-07T14:04:15;0.73;;;0.40;;
35646;SDS011;28680;45.642;13.756;2023-08-07T14:06:41;0.43;;;0.32;;
35646;SDS011;28680;45.642;13.756;2023-08-07T14:09:08;0.98;;;0.47;;
35646;SDS011;28680;45.642;13.756;2023-08-07T14:11:34;0.93;;;0.40;;
35646;SDS011;28680;45.642;13.756;2023-08-07T14:14:01;0.28;;;0.20;;
35646;SDS011;28680;45.642;13.756;2023-08-07T14:16:27;1.13;;;0.40;;
35646;SDS011;28680;45.642;13.756;2023-08-07T14:18:53;0.80;;;0.47;;
35646;SDS011;28680;45.642;13.756;2023-08-07T14:21:19;0.55;;;0.40;;
35646;SDS011;28680;45.642;13.756;2023-08-07T14:23:46;0.75;;;0.25;;
35646;SDS011;28680;45.642;13.756;2023-08-07T14:26:13;0.20;;;0.20;;
35646;SDS011;28680;45.642;13.756;2023-08-07T14:28:39;1.63;;;0.30;;
35646;SDS011;28680;45.642;13.756;2023-08-07T14:31:06;1.13;;;0.52;;
35646;SDS011;28680;45.642;13.756;2023-08-07T14:33:34;0.30;;;0.30;;
35646;SDS011;28680;45.642;13.756;2023-08-07T14:36:00;1.17;;;0.40;;
35646;SDS011;28680;45.642;13.756;2023-08-07T14:38:27;0.45;;;0.30;;
35646;SDS011;28680;45.642;13.756;2023-08-07T14:40:54;1.10;;;0.50;;
35646;SDS011;28680;45.642;13.756;2023-08-07T14:43:21;0.45;;;0.30;;
35646;SDS011;28680;45.642;13.756;2023-08-07T14:45:47;0.55;;;0.32;;
35646;SDS011;28680;45.642;13.756;2023-08-07T14:48:14;0.77;;;0.40;;